createdAt,value
2019-04-16T00:00:14.168Z,8.70
2019-04-16T00:01:06.960Z,7.92
2019-04-16T00:02:03.336Z,8.28
2019-04-16T00:02:55.159Z,7.77
2019-04-16T00:03:38.060Z,7.85
2019-04-16T00:04:35.253Z,7.60
2019-04-16T00:05:27.505Z,7.60
2019-04-16T00:06:09.043Z,8.00
2019-04-16T00:07:06.200Z,8.70
2019-04-16T00:07:53.265Z,9.05
2019-04-16T00:08:41.531Z,8.50
2019-04-16T00:09:34.577Z,8.13
2019-04-16T00:10:29.058Z,8.50
2019-04-16T00:11:23.426Z,8.80
2019-04-16T00:12:19.800Z,8.50
2019-04-16T00:13:16.606Z,8.20
2019-04-16T00:14:09.130Z,8.98
2019-04-16T00:15:09.124Z,7.95
2019-04-16T00:15:49.764Z,8.08
2019-04-16T00:16:32.605Z,7.80
2019-04-16T00:17:15.939Z,7.83
2019-04-16T00:17:56.118Z,7.67
2019-04-16T00:18:36.825Z,7.55
2019-04-16T00:19:17.530Z,8.03
2019-04-16T00:19:58.607Z,7.70
2019-04-16T00:20:43.305Z,8.43
2019-04-16T00:21:41.148Z,8.78
2019-04-16T00:22:37.172Z,8.20
2019-04-16T00:23:23.791Z,7.78
2019-04-16T00:24:22.589Z,7.95
2019-04-16T00:25:04.062Z,8.40
2019-04-16T00:25:46.826Z,8.63
2019-04-16T00:26:27.843Z,7.55
2019-04-16T00:27:08.642Z,7.22
2019-04-16T00:27:49.383Z,8.10
2019-04-16T00:28:33.891Z,7.65
2019-04-16T00:29:16.047Z,7.72
2019-04-16T00:30:03.895Z,7.47
2019-04-16T00:30:41.788Z,7.10
2019-04-16T00:31:22.897Z,8.15
2019-04-16T00:32:26.126Z,7.87
2019-04-16T00:33:07.508Z,7.97
2019-04-16T00:33:49.017Z,7.92
2019-04-16T00:34:29.993Z,7.95
2019-04-16T00:35:15.459Z,8.05
2019-04-16T00:35:56.278Z,9.05
2019-04-16T00:36:37.571Z,8.05
2019-04-16T00:37:22.158Z,7.87
2019-04-16T00:38:04.573Z,7.90
2019-04-16T00:38:45.400Z,7.70
2019-04-16T00:39:26.589Z,7.67
2019-04-16T00:40:07.762Z,8.23
2019-04-16T00:41:06.096Z,7.95
2019-04-16T00:41:47.199Z,7.85
2019-04-16T00:42:33.616Z,7.22
2019-04-16T00:43:14.792Z,7.37
2019-04-16T00:43:57.135Z,6.97
2019-04-16T00:44:39.577Z,7.53
2019-04-16T00:45:21.532Z,6.92
2019-04-16T00:46:02.217Z,8.05
2019-04-16T00:46:45.024Z,6.60
2019-04-16T00:47:26.010Z,7.20
2019-04-16T00:48:08.800Z,7.28
2019-04-16T00:48:51.421Z,7.80
2019-04-16T00:49:37.901Z,6.78
2019-04-16T00:50:20.471Z,7.33
2019-04-16T00:51:02.369Z,7.37
2019-04-16T00:51:44.826Z,7.62
2019-04-16T00:52:25.897Z,7.55
2019-04-16T00:53:08.321Z,7.75
2019-04-16T00:53:50.606Z,8.63
2019-04-16T00:54:31.330Z,7.30
2019-04-16T00:55:14.526Z,7.55
2019-04-16T00:55:58.178Z,7.83
2019-04-16T00:56:39.118Z,7.73
2019-04-16T00:57:19.669Z,7.75
2019-04-16T00:58:00.410Z,7.12
2019-04-16T00:58:42.867Z,7.30
2019-04-16T00:59:25.078Z,6.67
2019-04-16T01:00:07.145Z,7.33
2019-04-16T01:00:50.086Z,7.07
2019-04-16T01:01:31.043Z,6.83
2019-04-16T01:02:11.863Z,7.20
2019-04-16T01:02:52.567Z,7.25
2019-04-16T01:03:34.903Z,7.40
2019-04-16T01:04:21.685Z,8.05
2019-04-16T01:05:02.705Z,7.17
2019-04-16T01:05:43.710Z,7.08
2019-04-16T01:06:24.526Z,7.25
2019-04-16T01:07:08.201Z,8.10
2019-04-16T01:07:50.638Z,6.15
2019-04-16T01:08:32.974Z,7.40
2019-04-16T01:09:18.655Z,6.50
2019-04-16T01:09:59.407Z,6.85
2019-04-16T01:10:40.309Z,6.27
2019-04-16T01:11:21.056Z,6.85
2019-04-16T01:12:01.788Z,7.35
2019-04-16T01:12:42.528Z,7.13
2019-04-16T01:13:25.952Z,7.28
2019-04-16T01:14:07.098Z,7.00
2019-04-16T01:14:48.450Z,7.15
2019-04-16T01:15:31.794Z,6.30
2019-04-16T01:16:13.087Z,6.45
2019-04-16T01:16:54.748Z,6.42
2019-04-16T01:17:36.198Z,6.42
2019-04-16T01:18:20.332Z,6.67
2019-04-16T01:19:01.292Z,6.45
2019-04-16T01:19:46.746Z,6.03
2019-04-16T01:20:29.146Z,6.42
2019-04-16T01:21:13.752Z,6.45
2019-04-16T01:21:55.325Z,7.12
2019-04-16T01:22:37.661Z,7.17
2019-04-16T01:23:20.408Z,6.62
2019-04-16T01:24:01.330Z,6.33
2019-04-16T01:24:44.962Z,6.33
2019-04-16T01:25:27.524Z,6.53
2019-04-16T01:26:08.673Z,6.10
2019-04-16T01:26:51.596Z,6.15
2019-04-16T01:27:35.725Z,6.25
2019-04-16T01:28:18.311Z,6.08
2019-04-16T01:29:12.945Z,6.17
2019-04-16T01:29:54.476Z,6.17
2019-04-16T01:30:52.886Z,6.47
2019-04-16T01:31:49.938Z,6.45
2019-04-16T01:32:48.217Z,6.28
2019-04-16T01:33:43.438Z,6.85
2019-04-16T01:34:48.316Z,5.78
2019-04-16T01:35:51.791Z,6.37
2019-04-16T01:36:54.373Z,6.33
2019-04-16T01:37:50.491Z,5.75
2019-04-16T01:38:39.703Z,6.28
2019-04-16T01:39:21.797Z,6.33
2019-04-16T01:40:02.995Z,6.25
2019-04-16T01:40:56.238Z,5.87
2019-04-16T01:41:39.551Z,5.95
2019-04-16T01:42:23.673Z,6.45
2019-04-16T01:43:04.177Z,6.30
2019-04-16T01:43:44.821Z,6.17
2019-04-16T01:44:28.646Z,6.62
2019-04-16T01:45:08.238Z,5.90
2019-04-16T01:45:49.176Z,6.72
2019-04-16T01:46:32.509Z,5.90
2019-04-16T01:47:12.287Z,6.08
2019-04-16T01:47:53.018Z,7.10
2019-04-16T01:48:33.699Z,5.95
2019-04-16T01:49:16.005Z,6.80
2019-04-16T01:50:01.354Z,6.00
2019-04-16T01:50:43.771Z,6.37
2019-04-16T01:51:24.527Z,6.85
2019-04-16T01:52:06.628Z,6.37
2019-04-16T01:52:49.824Z,6.15
2019-04-16T01:53:30.132Z,6.53
2019-04-16T01:54:12.047Z,6.35
2019-04-16T01:54:54.869Z,6.95
2019-04-16T01:55:42.291Z,6.80
2019-04-16T01:56:21.430Z,6.67
2019-04-16T01:57:04.478Z,6.42
2019-04-16T01:57:47.127Z,6.37
2019-04-16T01:58:28.120Z,6.70
2019-04-16T01:59:09.278Z,6.40
2019-04-16T01:59:50.249Z,6.87
2019-04-16T02:00:31.064Z,6.17
2019-04-16T02:01:12.400Z,5.97
2019-04-16T02:01:55.689Z,6.42
2019-04-16T02:02:36.440Z,7.20
2019-04-16T02:03:17.786Z,6.37
2019-04-16T02:04:01.054Z,6.20
2019-04-16T02:04:41.913Z,6.42
2019-04-16T02:05:23.166Z,6.60
2019-04-16T02:06:04.784Z,7.15
2019-04-16T02:06:47.209Z,6.65
2019-04-16T02:07:31.367Z,7.25
2019-04-16T02:08:16.737Z,6.62
2019-04-16T02:09:03.241Z,6.22
2019-04-16T02:09:47.999Z,7.00
2019-04-16T02:10:35.414Z,6.55
2019-04-16T02:11:22.083Z,6.60
2019-04-16T02:12:04.485Z,6.55
2019-04-16T02:12:47.180Z,6.63
2019-04-16T02:13:33.160Z,6.90
2019-04-16T02:14:22.114Z,6.53
2019-04-16T02:15:03.245Z,6.70
2019-04-16T02:15:44.389Z,6.30
2019-04-16T02:16:30.486Z,6.45
2019-04-16T02:17:13.229Z,6.75
2019-04-16T02:17:58.691Z,6.60
2019-04-16T02:18:42.166Z,7.00
2019-04-16T02:19:27.491Z,6.25
2019-04-16T02:20:11.355Z,6.87
2019-04-16T02:21:00.504Z,6.45
2019-04-16T02:21:45.047Z,6.60
2019-04-16T02:22:28.048Z,6.53
2019-04-16T02:23:13.764Z,6.90
2019-04-16T02:23:55.835Z,6.37
2019-04-16T02:24:39.161Z,5.85
2019-04-16T02:25:32.722Z,7.15
2019-04-16T02:26:27.886Z,6.17
2019-04-16T02:27:12.850Z,6.28
2019-04-16T02:27:58.802Z,7.33
2019-04-16T02:28:49.611Z,7.15
2019-04-16T02:29:38.908Z,6.50
2019-04-16T02:30:22.352Z,6.55
2019-04-16T02:31:15.342Z,6.58
2019-04-16T02:31:55.349Z,6.95
2019-04-16T02:32:44.058Z,6.92
2019-04-16T02:33:30.368Z,7.10
2019-04-16T02:34:16.353Z,7.10
2019-04-16T02:34:57.589Z,7.10
2019-04-16T02:35:44.170Z,6.78
2019-04-16T02:36:30.397Z,6.75
2019-04-16T02:37:37.611Z,6.75
2019-04-16T02:38:25.622Z,6.95
2019-04-16T02:39:10.282Z,7.03
2019-04-16T02:39:57.608Z,6.72
2019-04-16T02:40:51.457Z,6.10
2019-04-16T02:41:28.795Z,6.60
2019-04-16T02:42:10.958Z,6.90
2019-04-16T02:43:04.108Z,7.00
2019-04-16T02:43:48.682Z,7.50
2019-04-16T02:44:37.752Z,7.12
2019-04-16T02:45:23.712Z,6.75
2019-04-16T02:46:04.212Z,7.08
2019-04-16T02:46:50.901Z,6.43
2019-04-16T02:47:40.257Z,6.47
2019-04-16T02:48:17.501Z,7.60
2019-04-16T02:48:59.964Z,6.65
2019-04-16T02:49:40.842Z,7.25
2019-04-16T02:50:31.945Z,7.35
2019-04-16T02:51:41.642Z,7.47
2019-04-16T02:52:53.447Z,7.28
2019-04-16T02:53:46.557Z,7.15
2019-04-16T02:54:41.009Z,7.47
2019-04-16T02:55:49.629Z,7.20
2019-04-16T02:56:51.617Z,7.28
2019-04-16T02:57:34.148Z,7.65
2019-04-16T02:58:18.640Z,7.67
2019-04-16T02:59:10.568Z,7.03
2019-04-16T02:59:51.694Z,7.12
2019-04-16T03:00:59.104Z,7.78
2019-04-16T03:01:51.881Z,8.00
2019-04-16T03:02:53.621Z,7.60
2019-04-16T03:03:46.256Z,7.58
2019-04-16T03:04:30.150Z,7.50
2019-04-16T03:05:33.530Z,7.45
2019-04-16T03:06:14.529Z,8.15
2019-04-16T03:06:55.496Z,7.37
2019-04-16T03:07:36.366Z,7.70
2019-04-16T03:08:19.365Z,7.22
2019-04-16T03:09:01.824Z,7.67
2019-04-16T03:09:42.939Z,7.65
2019-04-16T03:10:23.620Z,8.23
2019-04-16T03:11:10.572Z,8.35
2019-04-16T03:11:53.405Z,8.13
2019-04-16T03:12:34.186Z,7.60
2019-04-16T03:13:15.661Z,8.25
2019-04-16T03:13:59.206Z,7.62
2019-04-16T03:14:38.995Z,8.38
2019-04-16T03:15:21.846Z,8.08
2019-04-16T03:16:26.861Z,8.43
2019-04-16T03:17:34.848Z,8.78
2019-04-16T03:18:16.779Z,8.20
2019-04-16T03:19:08.615Z,8.75
2019-04-16T03:19:51.278Z,7.97
2019-04-16T03:20:31.710Z,8.45
2019-04-16T03:21:14.415Z,7.67
2019-04-16T03:21:55.794Z,8.50
2019-04-16T03:22:37.067Z,7.65
2019-04-16T03:23:19.029Z,8.48
2019-04-16T03:23:59.734Z,7.90
2019-04-16T03:24:41.007Z,8.57
2019-04-16T03:25:21.797Z,8.45
2019-04-16T03:26:04.236Z,8.18
2019-04-16T03:26:50.361Z,7.70
2019-04-16T03:27:30.177Z,8.48
2019-04-16T03:28:11.575Z,8.88
2019-04-16T03:28:59.129Z,8.93
2019-04-16T03:29:40.473Z,8.30
2019-04-16T03:30:21.611Z,8.03
2019-04-16T03:31:08.802Z,8.15
2019-04-16T03:31:48.069Z,8.40
2019-04-16T03:32:35.507Z,8.40
2019-04-16T03:33:15.758Z,8.78
2019-04-16T03:33:57.022Z,7.20
2019-04-16T12:15:06.375Z,4.63
2019-04-16T12:16:03.299Z,4.30
2019-04-16T12:16:55.002Z,4.03
2019-04-16T12:17:47.762Z,4.10
2019-04-16T12:18:46.622Z,4.13
2019-04-16T12:19:44.944Z,3.70
2019-04-16T12:20:41.892Z,4.17
2019-04-16T12:21:42.977Z,4.40
2019-04-16T12:22:28.759Z,5.47
2019-04-16T12:23:26.420Z,4.27
2019-04-16T12:24:31.619Z,3.60
2019-04-16T12:25:31.317Z,3.60
2019-04-16T12:26:32.181Z,4.13
2019-04-16T12:27:36.089Z,3.80
2019-04-16T12:28:53.338Z,5.17
2019-04-16T12:29:44.946Z,3.77
2019-04-16T12:30:41.510Z,4.20
2019-04-16T12:31:39.843Z,4.27
2019-04-16T12:32:31.273Z,4.53
2019-04-16T12:33:23.648Z,4.57
2019-04-16T12:34:18.852Z,4.20
2019-04-16T12:35:34.433Z,4.33
2019-04-16T12:36:36.505Z,4.00
2019-04-16T12:37:37.418Z,4.60
2019-04-16T12:38:30.119Z,4.70
2019-04-16T12:39:28.788Z,4.10
2019-04-16T12:40:33.370Z,4.50
2019-04-16T12:41:30.503Z,4.67
2019-04-16T12:42:29.273Z,3.80
2019-04-16T12:43:40.024Z,4.60
2019-04-16T12:44:44.591Z,3.57
2019-04-16T12:45:31.920Z,4.23
2019-04-16T12:46:33.858Z,4.62
2019-04-16T12:47:25.637Z,3.65
2019-04-16T12:48:27.928Z,3.30
2019-04-16T12:49:31.007Z,3.50
2019-04-16T12:50:30.648Z,3.30
2019-04-16T12:51:23.561Z,3.30
2019-04-16T12:52:22.435Z,3.33
2019-04-16T12:53:10.235Z,3.30
2019-04-16T12:54:14.776Z,3.97
2019-04-16T12:55:13.480Z,3.27
2019-04-16T12:56:13.059Z,3.93
2019-04-16T12:57:29.889Z,3.43
2019-04-16T12:58:29.574Z,3.23
2019-04-16T12:59:16.715Z,3.33
2019-04-16T13:00:33.650Z,3.83
2019-04-16T13:01:29.090Z,3.42
2019-04-16T13:02:44.864Z,3.13
2019-04-16T13:03:46.558Z,3.03
2019-04-16T13:04:45.662Z,3.10
2019-04-16T13:05:50.894Z,3.50
2019-04-16T13:06:40.944Z,2.75
2019-04-16T13:07:51.944Z,3.52
2019-04-16T13:08:45.786Z,3.40
2019-04-16T13:09:43.820Z,3.45
2019-04-16T13:10:30.289Z,3.25
2019-04-16T13:11:31.926Z,3.37
2019-04-16T13:12:26.136Z,3.85
2019-04-16T13:13:40.560Z,4.08
2019-04-16T13:15:00.564Z,4.17
2019-04-16T13:15:51.404Z,4.30
2019-04-16T13:17:01.611Z,4.28
2019-04-16T13:17:58.632Z,5.20
2019-04-16T13:18:48.198Z,4.00
2019-04-16T13:19:59.297Z,4.87
2019-04-16T13:21:05.933Z,4.83
2019-04-16T13:22:00.937Z,5.17
2019-04-16T13:22:46.827Z,5.23
2019-04-16T13:24:02.225Z,5.53
2019-04-16T13:25:05.074Z,6.43
2019-04-16T13:26:00.603Z,5.45
2019-04-16T13:27:47.873Z,5.30
2019-04-16T13:28:31.657Z,4.78
2019-04-16T13:29:29.001Z,5.33
2019-04-16T13:30:05.605Z,5.20
2019-04-16T13:30:46.523Z,5.73
2019-04-16T13:31:27.505Z,4.97
2019-04-16T13:32:08.525Z,5.73
2019-04-16T13:32:51.217Z,5.87
2019-04-16T13:33:32.280Z,5.63
2019-04-16T13:34:18.241Z,5.50
2019-04-16T13:34:57.881Z,5.10
2019-04-16T13:35:38.581Z,4.97
2019-04-16T13:36:28.152Z,5.60
2019-04-16T13:37:10.125Z,5.73
2019-04-16T13:37:52.718Z,6.00
2019-04-16T13:38:37.579Z,6.25
2019-04-16T13:39:35.165Z,5.30
2019-04-16T13:40:41.429Z,5.20
2019-04-16T13:41:20.490Z,5.53
2019-04-16T13:42:04.436Z,5.57
2019-04-16T13:42:46.406Z,5.50
2019-04-16T13:43:38.954Z,5.70
2019-04-16T13:44:24.549Z,5.60
2019-04-16T13:45:27.931Z,5.40
2019-04-16T13:47:22.654Z,5.80
2019-04-16T13:48:27.264Z,6.53
2019-04-16T13:51:04.964Z,6.30
2019-04-16T13:51:57.393Z,6.08
2019-04-16T13:52:47.965Z,5.77
2019-04-16T13:54:04.073Z,6.08
2019-04-16T13:55:09.496Z,6.83
2019-04-16T13:56:17.359Z,5.83
2019-04-16T13:57:16.704Z,6.08
2019-04-16T13:58:29.746Z,6.30
2019-04-16T13:59:31.070Z,5.27
2019-04-16T14:00:33.648Z,6.07
2019-04-16T14:01:23.343Z,7.00
2019-04-16T14:02:17.421Z,6.20
2019-04-16T14:03:03.169Z,6.30
2019-04-16T14:03:46.703Z,5.90
2019-04-16T14:04:30.912Z,6.60
2019-04-16T14:05:11.530Z,6.63
2019-04-16T14:05:54.901Z,5.97
2019-04-16T14:06:37.011Z,5.53
2019-04-16T14:07:26.536Z,5.83
2019-04-16T14:08:13.382Z,6.93
2019-04-16T14:08:56.290Z,5.60
2019-04-16T14:09:37.074Z,6.67
2019-04-16T14:10:18.733Z,6.55
2019-04-16T14:11:01.163Z,6.10
2019-04-16T14:11:42.369Z,5.77
2019-04-16T14:12:27.982Z,5.87
2019-04-16T14:13:05.649Z,6.63
2019-04-16T14:13:50.359Z,6.53
2019-04-16T14:14:33.629Z,6.50
2019-04-16T14:15:14.775Z,5.93
2019-04-16T14:15:55.724Z,6.23
2019-04-16T14:16:36.359Z,6.90
2019-04-16T14:17:19.948Z,6.57
2019-04-16T14:18:00.829Z,6.20
2019-04-16T14:18:43.245Z,7.00
2019-04-16T14:19:24.106Z,6.10
2019-04-16T14:20:05.090Z,6.93
2019-04-16T14:20:46.022Z,6.10
2019-04-16T14:21:27.583Z,5.60
2019-04-16T14:22:09.752Z,6.17
2019-04-16T14:22:53.355Z,6.43
2019-04-16T14:23:33.124Z,5.80
2019-04-16T14:24:14.290Z,6.10
2019-04-16T14:24:55.280Z,6.30
2019-04-16T14:25:37.998Z,6.67
2019-04-16T14:26:20.697Z,6.70
2019-04-16T14:27:04.698Z,6.10
2019-04-16T14:27:45.857Z,5.80
2019-04-16T14:28:28.566Z,5.97
2019-04-16T14:29:10.218Z,5.83
2019-04-16T14:29:53.532Z,6.37
2019-04-16T14:30:39.510Z,6.40
2019-04-16T14:31:19.758Z,6.60
2019-04-16T14:32:00.711Z,5.47
2019-04-16T14:32:41.562Z,5.63
2019-04-16T14:33:43.979Z,6.70
2019-04-16T14:34:31.315Z,5.63
2019-04-16T14:35:32.267Z,6.23
2019-04-16T14:36:01.135Z,5.90
2019-04-16T14:36:43.628Z,7.27
2019-04-16T14:37:24.562Z,6.10
2019-04-16T14:38:05.813Z,6.37
2019-04-16T14:38:55.380Z,5.53
2019-04-16T14:39:44.114Z,6.60
2019-04-16T14:40:28.878Z,6.10
2019-04-16T14:41:15.877Z,6.07
2019-04-16T14:41:56.667Z,6.70
2019-04-16T14:42:41.761Z,5.97
2019-04-16T14:43:29.162Z,6.27
2019-04-16T14:44:12.575Z,6.30
2019-04-16T14:45:07.494Z,5.43
2019-04-16T14:45:59.116Z,5.43
2019-04-16T14:46:43.155Z,6.10
2019-04-16T14:47:25.646Z,6.63
2019-04-16T14:48:10.203Z,6.90
2019-04-16T14:48:50.962Z,6.47
2019-04-16T14:49:33.742Z,6.27
2019-04-16T14:50:14.836Z,5.77
2019-04-16T14:50:55.636Z,5.10
2019-04-16T14:51:36.810Z,5.90
2019-04-16T14:52:18.790Z,5.10
2019-04-16T14:53:01.461Z,5.90
2019-04-16T14:54:00.579Z,5.50
2019-04-16T14:54:48.622Z,6.77
2019-04-16T14:55:41.931Z,5.23
2019-04-16T14:56:38.513Z,4.90
2019-04-16T14:57:19.565Z,6.13
2019-04-16T14:58:10.431Z,6.53
2019-04-16T14:59:12.053Z,6.80
2019-04-16T15:00:16.076Z,5.70
2019-04-16T15:01:32.469Z,5.90
2019-04-16T15:02:35.394Z,5.87
2019-04-16T15:03:43.017Z,6.30
2019-04-16T15:04:40.146Z,6.75
2019-04-16T15:05:44.695Z,5.17
2019-04-16T15:06:43.658Z,5.80
2019-04-16T15:07:52.652Z,6.00
2019-04-16T15:08:41.376Z,5.85
2019-04-16T15:09:38.403Z,6.63
2019-04-16T15:10:43.038Z,5.58
2019-04-16T15:11:39.961Z,6.08
2019-04-16T15:12:36.614Z,6.27
2019-04-16T15:13:27.489Z,6.30
2019-04-16T15:14:14.794Z,5.90
2019-04-16T15:15:11.757Z,6.08
2019-04-16T15:16:10.959Z,6.62
2019-04-16T15:16:57.990Z,7.07
2019-04-16T15:17:49.975Z,6.20
2019-04-16T15:18:51.653Z,6.90
2019-04-16T15:19:51.953Z,5.60
2019-04-16T15:20:53.381Z,6.07
2019-04-16T15:21:52.003Z,5.77
2019-04-16T15:22:39.219Z,5.60
2019-04-16T15:23:43.528Z,6.27
2019-04-16T15:24:38.956Z,5.60
2019-04-16T15:25:27.278Z,5.70
2019-04-16T15:26:25.629Z,6.13
2019-04-16T15:27:24.157Z,5.97
2019-04-16T15:28:24.246Z,6.37
2019-04-16T15:29:23.430Z,5.63
2019-04-16T15:30:28.384Z,6.17
2019-04-16T15:31:17.332Z,5.50
2019-04-16T15:32:14.761Z,6.10
2019-04-16T15:33:28.188Z,6.23
2019-04-16T15:34:21.841Z,5.80
2019-04-16T15:35:03.055Z,5.30
2019-04-16T15:35:53.836Z,5.77
2019-04-16T15:36:49.844Z,5.77
2019-04-16T15:37:37.577Z,6.53
2019-04-16T15:38:36.439Z,6.70
2019-04-16T15:39:36.699Z,6.53
2019-04-16T15:40:26.637Z,5.97
2019-04-16T15:41:24.648Z,6.83
2019-04-16T15:42:25.906Z,6.37
2019-04-16T15:43:22.250Z,6.30
2019-04-16T15:44:22.619Z,6.33
2019-04-16T15:45:17.585Z,6.90
2019-04-16T15:46:26.767Z,5.92
2019-04-16T15:47:45.954Z,7.33
2019-04-16T15:48:54.487Z,6.65
2019-04-16T15:49:55.667Z,6.60
2019-04-16T15:50:57.875Z,6.60
2019-04-16T15:51:58.522Z,6.33
2019-04-16T15:53:11.348Z,7.23
2019-04-16T15:54:13.609Z,7.25
2019-04-16T15:55:25.451Z,7.13
2019-04-16T15:56:24.215Z,7.00
2019-04-16T15:57:22.828Z,6.25
2019-04-16T15:58:25.326Z,6.40
2019-04-16T15:59:09.813Z,6.70
2019-04-16T16:00:00.150Z,6.45
2019-04-16T16:00:47.612Z,6.43
2019-04-16T16:02:04.546Z,6.17
2019-04-16T16:03:01.522Z,5.55
2019-04-16T16:04:08.652Z,6.40
2019-04-16T16:05:09.676Z,5.70
2019-04-16T16:05:58.030Z,6.28
2019-04-16T16:06:52.177Z,6.90
2019-04-16T16:07:43.481Z,6.13
2019-04-16T16:08:38.437Z,5.83
2019-04-16T16:09:33.780Z,7.00
2019-04-16T16:10:24.941Z,6.10
2019-04-16T16:11:08.688Z,5.70
2019-04-16T16:11:58.360Z,6.05
2019-04-16T16:12:39.023Z,6.20
2019-04-16T16:13:19.603Z,5.83
2019-04-16T16:14:01.487Z,6.40
2019-04-16T16:14:42.292Z,6.20
2019-04-16T16:15:23.189Z,5.90
2019-04-16T16:16:03.973Z,6.03
2019-04-16T16:16:47.698Z,5.40
2019-04-16T16:17:31.359Z,5.27
2019-04-16T16:18:12.257Z,5.37
2019-04-16T16:18:53.044Z,4.53
2019-04-16T16:19:38.992Z,5.25
2019-04-16T16:20:19.688Z,5.20
2019-04-16T16:21:00.325Z,4.97
2019-04-16T16:21:41.918Z,4.95
2019-04-16T16:22:22.546Z,4.78
2019-04-16T16:23:07.695Z,4.15
2019-04-16T16:23:48.417Z,4.53
2019-04-16T16:24:35.786Z,4.25
2019-04-16T16:25:14.794Z,4.62
2019-04-16T16:25:58.749Z,5.10
2019-04-16T16:26:41.208Z,4.73
2019-04-16T16:27:21.946Z,4.12
2019-04-16T16:28:02.660Z,4.33
2019-04-16T16:28:43.238Z,4.60
2019-04-16T16:29:24.127Z,3.83
2019-04-16T16:30:06.290Z,3.90
2019-04-16T16:30:49.385Z,3.80
2019-04-16T16:31:35.113Z,4.70
2019-04-16T16:32:13.424Z,4.40
2019-04-16T16:32:54.670Z,3.25
2019-04-16T16:33:35.361Z,3.70
2019-04-16T16:34:16.194Z,4.22
2019-04-16T16:34:59.943Z,3.45
2019-04-16T16:35:40.578Z,3.90
2019-04-16T16:36:21.521Z,3.75
2019-04-16T16:37:05.408Z,4.47
2019-04-16T16:37:46.102Z,4.33
2019-04-16T16:38:26.672Z,3.50
2019-04-16T16:39:08.037Z,3.55
2019-04-16T16:39:49.867Z,3.90
2019-04-16T16:40:33.746Z,3.60
2019-04-16T16:41:14.722Z,3.47
2019-04-16T16:41:59.523Z,3.55
2019-04-16T16:42:40.389Z,3.17
2019-04-16T16:43:22.252Z,3.70
2019-04-16T16:44:04.549Z,3.50
2019-04-16T16:44:45.763Z,3.40
2019-04-16T16:45:42.070Z,3.60
2019-04-16T16:46:55.998Z,2.87
2019-04-16T16:47:51.326Z,3.50
2019-04-16T16:48:32.033Z,3.70
2019-04-16T16:49:12.877Z,3.60
2019-04-16T16:49:53.565Z,3.50
2019-04-16T16:50:35.863Z,2.62
2019-04-16T16:51:16.793Z,3.27
2019-04-16T16:52:26.071Z,3.35
2019-04-16T16:53:16.577Z,3.45
2019-04-16T16:54:05.748Z,2.90
2019-04-16T16:54:47.881Z,3.63
2019-04-16T16:55:35.225Z,3.37
2019-04-16T16:56:24.222Z,3.00
2019-04-16T16:57:18.307Z,3.33
2019-04-16T16:58:26.675Z,3.10
2019-04-16T16:59:18.176Z,2.83
2019-04-16T17:00:23.774Z,3.25
2019-04-16T17:01:20.375Z,3.30
2019-04-16T17:02:15.012Z,3.20
2019-04-16T17:03:11.781Z,3.02
2019-04-16T17:04:00.609Z,2.90
2019-04-16T17:04:45.004Z,3.60
2019-04-16T17:05:30.541Z,3.10
2019-04-16T17:06:12.537Z,3.20
2019-04-16T17:06:53.321Z,3.27
2019-04-16T17:07:34.513Z,3.25
2019-04-16T17:08:15.240Z,3.15
2019-04-16T17:08:56.234Z,2.60
2019-04-16T17:09:37.990Z,3.17
2019-04-16T17:10:18.605Z,2.95
2019-04-16T17:11:14.977Z,2.80
2019-04-16T17:11:45.323Z,2.80
2019-04-16T17:12:27.045Z,2.72
2019-04-16T17:13:07.652Z,3.33
2019-04-16T17:13:50.276Z,3.10
2019-04-16T17:14:36.498Z,3.20
2019-04-16T17:15:17.029Z,3.27
2019-04-16T17:15:57.897Z,2.70
2019-04-16T17:16:42.312Z,3.27
2019-04-16T17:17:22.894Z,3.10
2019-04-16T17:18:03.604Z,3.05
2019-04-16T17:18:45.725Z,3.30
2019-04-16T17:19:26.463Z,2.95
2019-04-16T17:20:07.403Z,2.70
2019-04-16T17:20:50.236Z,3.05
2019-04-16T17:21:30.107Z,2.72
2019-04-16T17:22:14.700Z,3.15
2019-04-16T17:22:56.483Z,2.87
2019-04-16T17:23:37.271Z,2.47
2019-04-16T17:24:20.081Z,3.15
2019-04-16T17:25:02.486Z,2.52
2019-04-16T17:25:43.171Z,2.98
2019-04-16T17:26:23.919Z,2.95
2019-04-16T17:27:04.643Z,2.92
2019-04-16T17:27:51.731Z,2.83
2019-04-16T17:28:27.212Z,2.60
2019-04-16T17:29:08.049Z,2.80
2019-04-16T17:29:50.894Z,2.52
2019-04-16T17:30:33.774Z,2.42
2019-04-16T17:31:14.399Z,3.00
2019-04-16T17:31:55.672Z,3.30
2019-04-16T17:32:37.496Z,2.95
2019-04-16T17:33:18.469Z,3.05
2019-04-16T17:34:00.316Z,2.90
2019-04-16T17:34:41.001Z,2.80
2019-04-16T17:35:21.767Z,2.92
2019-04-16T17:36:02.852Z,2.50
2019-04-16T17:36:43.603Z,3.17
2019-04-16T17:37:27.809Z,2.50
2019-04-16T17:38:06.548Z,2.90
2019-04-16T17:38:48.674Z,2.63
2019-04-16T17:39:51.746Z,2.50
2019-04-16T17:40:58.709Z,2.67
2019-04-16T17:41:42.757Z,2.65
2019-04-16T17:42:31.088Z,2.72
2019-04-16T17:43:26.159Z,2.90
2019-04-16T17:44:27.420Z,2.80
2019-04-16T17:45:27.116Z,2.75
2019-04-16T17:46:16.775Z,2.67
2019-04-16T17:47:31.753Z,2.70
2019-04-16T17:48:31.328Z,3.02
2019-04-16T17:49:20.818Z,2.30
2019-04-16T17:50:08.421Z,2.95
2019-04-16T17:51:13.014Z,2.50
2019-04-16T17:52:07.674Z,2.55
2019-04-16T17:52:58.351Z,2.80
2019-04-16T17:53:56.257Z,2.40
2019-04-16T17:54:43.537Z,2.72
2019-04-16T17:55:40.378Z,3.15
2019-04-16T17:56:37.089Z,2.75
2019-04-16T17:57:38.437Z,2.65
2019-04-16T17:58:27.330Z,2.55
2019-04-16T17:59:11.528Z,2.45
2019-04-16T18:00:08.827Z,2.45
2019-04-16T18:01:10.116Z,2.60
2019-04-16T18:02:11.655Z,2.40
2019-04-16T18:03:09.662Z,2.67
2019-04-16T18:03:58.086Z,2.37
2019-04-16T18:05:05.486Z,2.45
2019-04-16T18:05:54.671Z,2.40
2019-04-16T18:06:58.412Z,2.22
2019-04-16T18:07:55.306Z,2.60
2019-04-16T18:09:08.319Z,2.35
2019-04-16T18:10:04.435Z,2.80
2019-04-16T18:10:54.670Z,3.23
2019-04-16T18:11:48.032Z,2.50
2019-04-16T18:12:50.703Z,2.65
2019-04-16T18:13:48.120Z,2.40
2019-04-16T18:14:44.608Z,2.65
2019-04-16T18:15:36.775Z,2.30
2019-04-16T18:16:31.817Z,2.75
2019-04-16T18:17:27.608Z,2.40
2019-04-16T18:18:15.527Z,2.70
2019-04-16T18:19:06.620Z,2.60
2019-04-16T18:20:02.994Z,3.00
2019-04-16T18:21:01.665Z,2.53
2019-04-16T18:22:15.858Z,2.80
2019-04-16T18:23:22.446Z,2.55
2019-04-16T18:24:25.565Z,3.05
2019-04-16T18:25:21.184Z,2.45
2019-04-16T18:26:18.173Z,2.95
2019-04-16T18:27:15.722Z,2.50
2019-04-16T18:28:06.753Z,2.67
2019-04-16T18:29:03.720Z,2.87
2019-04-16T18:29:56.348Z,2.75
2019-04-16T18:30:53.373Z,2.72
2019-04-16T18:32:00.705Z,2.50
2019-04-16T18:33:09.613Z,2.80
2019-04-16T18:34:00.485Z,2.33
2019-04-16T18:34:48.839Z,2.57
2019-04-16T18:35:54.682Z,2.85
2019-04-16T18:36:42.189Z,3.05
2019-04-16T18:37:48.591Z,2.98
2019-04-16T18:38:47.523Z,2.50
2019-04-16T18:39:39.758Z,2.60
2019-04-16T18:40:53.557Z,2.70
2019-04-16T18:41:41.660Z,2.47
2019-04-16T18:42:27.361Z,2.50
2019-04-16T18:43:30.408Z,2.87
2019-04-16T18:44:34.147Z,2.83
2019-04-16T18:45:29.480Z,2.60
2019-04-16T18:46:43.006Z,2.27
2019-04-16T18:47:42.603Z,2.80
2019-04-16T18:48:27.679Z,3.10
2019-04-16T18:49:17.431Z,2.52
2019-04-16T18:50:00.739Z,3.02
2019-04-16T18:50:41.613Z,2.62
2019-04-16T18:51:24.122Z,2.67
2019-04-16T18:52:06.381Z,3.00
2019-04-16T18:52:47.266Z,2.57
2019-04-16T18:53:29.664Z,3.10
2019-04-16T18:54:10.487Z,2.40
2019-04-16T18:54:51.230Z,2.60
2019-04-16T18:55:31.864Z,3.00
2019-04-16T18:56:12.933Z,2.72
2019-04-16T18:56:56.039Z,2.92
2019-04-16T18:57:38.443Z,3.00
2019-04-16T18:58:20.477Z,3.05
2019-04-16T18:59:01.147Z,2.90
2019-04-16T18:59:43.000Z,2.85
2019-04-16T19:00:46.664Z,3.10
2019-04-16T19:01:32.383Z,3.12
2019-04-16T19:02:14.500Z,2.37
2019-04-16T19:02:57.354Z,3.45
2019-04-16T19:03:38.005Z,3.15
2019-04-16T19:04:19.440Z,2.83
2019-04-16T19:05:01.211Z,2.47
2019-04-16T19:05:41.880Z,2.55
2019-04-16T19:06:23.861Z,3.00
2019-04-16T19:07:04.777Z,2.60
2019-04-16T19:07:48.280Z,2.37
2019-04-16T19:08:41.016Z,2.83
2019-04-16T19:09:12.758Z,2.55
2019-04-16T19:09:53.592Z,2.87
2019-04-16T19:10:35.700Z,2.98
2019-04-16T19:11:20.338Z,2.95
2019-04-16T19:12:01.387Z,2.80
2019-04-16T19:12:42.251Z,2.77
2019-04-16T19:13:23.538Z,2.77
2019-04-16T19:14:04.368Z,3.10
2019-04-16T19:14:47.993Z,2.83
2019-04-16T19:15:29.010Z,3.25
2019-04-16T19:16:11.362Z,2.70
2019-04-16T19:16:54.049Z,2.95
2019-04-16T19:17:34.928Z,2.80
2019-04-16T19:18:19.866Z,2.83
2019-04-16T19:19:01.110Z,2.90
2019-04-16T19:19:45.474Z,2.58
2019-04-16T19:20:24.906Z,2.80
2019-04-16T19:21:06.972Z,2.87
2019-04-16T19:21:52.175Z,3.20
2019-04-16T19:22:32.627Z,3.02
2019-04-16T19:23:14.566Z,2.83
2019-04-16T19:23:55.520Z,2.98
2019-04-16T19:24:36.484Z,2.75
2019-04-16T19:25:17.340Z,2.60
2019-04-16T19:25:58.332Z,2.75
2019-04-16T19:26:38.990Z,3.08
2019-04-16T19:27:21.117Z,2.90
2019-04-16T19:28:05.298Z,2.67
2019-04-16T19:28:46.476Z,3.00
2019-04-16T19:29:27.616Z,2.72
2019-04-16T19:30:10.431Z,2.80
2019-04-16T19:30:51.576Z,2.85
2019-04-16T19:31:35.286Z,2.40
2019-04-16T19:32:18.001Z,3.25